sensor_id;sensor_type;location;lat;lon;timestamp;P1;durP1;ratioP1;P2;durP2;ratioP2
34902;SDS011;21114;44.840;0.214;2022-11-21T00:01:33;23.08;;;13.55;;
34902;SDS011;21114;44.840;0.214;2022-11-21T00:03:59;14.10;;;9.43;;
34902;SDS011;21114;44.840;0.214;2022-11-21T00:06:25;11.20;;;8.75;;
34902;SDS011;21114;44.840;0.214;2022-11-21T00:08:51;16.13;;;12.05;;
34902;SDS011;21114;44.840;0.214;2022-11-21T00:11:17;14.45;;;11.32;;
34902;SDS011;21114;44.840;0.214;2022-11-21T00:13:43;15.43;;;12.32;;
34902;SDS011;21114;44.840;0.214;2022-11-21T00:16:11;15.07;;;11.10;;
34902;SDS011;21114;44.840;0.214;2022-11-21T00:19:25;14.23;;;11.10;;
34902;SDS011;21114;44.840;0.214;2022-11-21T00:21:51;15.68;;;12.35;;
34902;SDS011;21114;44.840;0.214;2022-11-21T00:24:17;16.27;;;11.60;;
34902;SDS011;21114;44.840;0.214;2022-11-21T00:26:43;14.55;;;11.07;;
34902;SDS011;21114;44.840;0.214;2022-11-21T00:29:09;13.43;;;9.88;;
34902;SDS011;21114;44.840;0.214;2022-11-21T00:31:36;16.55;;;12.05;;
34902;SDS011;21114;44.840;0.214;2022-11-21T00:34:02;12.90;;;10.40;;
34902;SDS011;21114;44.840;0.214;2022-11-21T00:36:28;12.52;;;9.80;;
34902;SDS011;21114;44.840;0.214;2022-11-21T00:38:54;13.02;;;10.63;;
34902;SDS011;21114;44.840;0.214;2022-11-21T00:41:20;15.07;;;11.57;;
34902;SDS011;21114;44.840;0.214;2022-11-21T00:43:46;12.77;;;11.43;;
34902;SDS011;21114;44.840;0.214;2022-11-21T00:46:12;14.52;;;11.32;;
34902;SDS011;21114;44.840;0.214;2022-11-21T00:48:38;14.38;;;10.93;;
34902;SDS011;21114;44.840;0.214;2022-11-21T00:51:04;16.58;;;12.43;;
34902;SDS011;21114;44.840;0.214;2022-11-21T00:53:30;15.43;;;10.70;;
34902;SDS011;21114;44.840;0.214;2022-11-21T00:55:56;11.52;;;8.90;;
34902;SDS011;21114;44.840;0.214;2022-11-21T00:58:22;13.45;;;9.85;;
34902;SDS011;21114;44.840;0.214;2022-11-21T01:00:49;19.23;;;10.35;;
34902;SDS011;21114;44.840;0.214;2022-11-21T01:03:15;13.98;;;10.15;;
34902;SDS011;21114;44.840;0.214;2022-11-21T01:05:41;9.65;;;8.00;;
34902;SDS011;21114;44.840;0.214;2022-11-21T01:08:07;12.77;;;10.52;;
34902;SDS011;21114;44.840;0.214;2022-11-21T01:10:34;13.77;;;9.90;;
34902;SDS011;21114;44.840;0.214;2022-11-21T01:13:45;14.50;;;10.98;;
34902;SDS011;21114;44.840;0.214;2022-11-21T01:16:13;15.27;;;11.50;;
34902;SDS011;21114;44.840;0.214;2022-11-21T01:19:28;9.77;;;8.57;;
34902;SDS011;21114;44.840;0.214;2022-11-21T01:21:54;10.32;;;8.65;;
34902;SDS011;21114;44.840;0.214;2022-11-21T01:24:20;15.45;;;11.35;;
34902;SDS011;21114;44.840;0.214;2022-11-21T01:26:46;13.80;;;9.00;;
34902;SDS011;21114;44.840;0.214;2022-11-21T01:29:14;11.77;;;8.10;;
34902;SDS011;21114;44.840;0.214;2022-11-21T01:31:40;10.88;;;8.02;;
34902;SDS011;21114;44.840;0.214;2022-11-21T01:34:06;14.13;;;9.65;;
34902;SDS011;21114;44.840;0.214;2022-11-21T01:36:33;15.15;;;9.30;;
34902;SDS011;21114;44.840;0.214;2022-11-21T01:39:00;15.80;;;10.02;;
34902;SDS011;21114;44.840;0.214;2022-11-21T01:42:15;14.02;;;9.18;;
34902;SDS011;21114;44.840;0.214;2022-11-21T01:44:45;10.80;;;7.53;;
34902;SDS011;21114;44.840;0.214;2022-11-21T01:48:00;22.55;;;10.95;;
34902;SDS011;21114;44.840;0.214;2022-11-21T01:50:26;18.88;;;10.70;;
34902;SDS011;21114;44.840;0.214;2022-11-21T01:53:41;19.95;;;11.05;;
34902;SDS011;21114;44.840;0.214;2022-11-21T01:57:00;16.60;;;10.15;;
34902;SDS011;21114;44.840;0.214;2022-11-21T02:00:18;15.02;;;9.38;;
34902;SDS011;21114;44.840;0.214;2022-11-21T02:03:35;16.05;;;10.65;;
34902;SDS011;21114;44.840;0.214;2022-11-21T02:06:51;20.08;;;11.48;;
34902;SDS011;21114;44.840;0.214;2022-11-21T02:09:17;16.83;;;9.80;;
34902;SDS011;21114;44.840;0.214;2022-11-21T02:11:45;15.45;;;10.50;;
34902;SDS011;21114;44.840;0.214;2022-11-21T02:15:01;24.52;;;13.75;;
34902;SDS011;21114;44.840;0.214;2022-11-21T02:17:28;16.20;;;10.82;;
34902;SDS011;21114;44.840;0.214;2022-11-21T02:20:44;23.77;;;11.32;;
34902;SDS011;21114;44.840;0.214;2022-11-21T02:24:01;22.00;;;10.15;;
34902;SDS011;21114;44.840;0.214;2022-11-21T02:27:18;15.38;;;10.27;;
34902;SDS011;21114;44.840;0.214;2022-11-21T02:29:44;23.92;;;13.77;;
34902;SDS011;21114;44.840;0.214;2022-11-21T02:32:18;24.02;;;15.88;;
34902;SDS011;21114;44.840;0.214;2022-11-21T02:35:33;30.63;;;14.88;;
34902;SDS011;21114;44.840;0.214;2022-11-21T02:38:04;18.05;;;10.82;;
34902;SDS011;21114;44.840;0.214;2022-11-21T02:41:20;15.75;;;9.55;;
34902;SDS011;21114;44.840;0.214;2022-11-21T02:44:39;13.20;;;8.70;;
34902;SDS011;21114;44.840;0.214;2022-11-21T02:47:55;18.30;;;12.32;;
34902;SDS011;21114;44.840;0.214;2022-11-21T02:50:22;21.75;;;10.95;;
34902;SDS011;21114;44.840;0.214;2022-11-21T02:53:38;16.38;;;9.60;;
34902;SDS011;21114;44.840;0.214;2022-11-21T02:56:04;16.80;;;9.57;;
34902;SDS011;21114;44.840;0.214;2022-11-21T02:58:30;21.30;;;11.02;;
34902;SDS011;21114;44.840;0.214;2022-11-21T03:00:57;20.52;;;12.38;;
34902;SDS011;21114;44.840;0.214;2022-11-21T03:03:23;16.52;;;9.57;;
34902;SDS011;21114;44.840;0.214;2022-11-21T03:05:49;16.30;;;9.80;;
34902;SDS011;21114;44.840;0.214;2022-11-21T03:08:15;13.70;;;10.35;;
34902;SDS011;21114;44.840;0.214;2022-11-21T03:10:41;12.05;;;8.10;;
34902;SDS011;21114;44.840;0.214;2022-11-21T03:13:07;14.75;;;7.68;;
34902;SDS011;21114;44.840;0.214;2022-11-21T03:15:33;9.38;;;7.57;;
34902;SDS011;21114;44.840;0.214;2022-11-21T03:18:00;11.98;;;7.47;;
34902;SDS011;21114;44.840;0.214;2022-11-21T03:20:27;12.88;;;7.57;;
34902;SDS011;21114;44.840;0.214;2022-11-21T03:23:42;14.85;;;7.80;;
34902;SDS011;21114;44.840;0.214;2022-11-21T03:26:08;12.52;;;7.88;;
34902;SDS011;21114;44.840;0.214;2022-11-21T03:28:34;14.20;;;9.75;;
34902;SDS011;21114;44.840;0.214;2022-11-21T03:31:00;17.30;;;8.75;;
34902;SDS011;21114;44.840;0.214;2022-11-21T03:33:26;15.70;;;6.32;;
34902;SDS011;21114;44.840;0.214;2022-11-21T03:35:52;10.23;;;6.32;;
34902;SDS011;21114;44.840;0.214;2022-11-21T03:38:18;7.95;;;5.65;;
34902;SDS011;21114;44.840;0.214;2022-11-21T03:40:44;15.65;;;8.70;;
34902;SDS011;21114;44.840;0.214;2022-11-21T03:43:10;14.63;;;8.73;;
34902;SDS011;21114;44.840;0.214;2022-11-21T03:45:36;10.38;;;6.43;;
34902;SDS011;21114;44.840;0.214;2022-11-21T03:48:02;9.77;;;6.85;;
34902;SDS011;21114;44.840;0.214;2022-11-21T03:50:28;8.07;;;5.28;;
34902;SDS011;21114;44.840;0.214;2022-11-21T03:52:54;10.63;;;6.82;;
34902;SDS011;21114;44.840;0.214;2022-11-21T03:55:20;9.15;;;5.35;;
34902;SDS011;21114;44.840;0.214;2022-11-21T03:57:47;11.02;;;5.45;;
34902;SDS011;21114;44.840;0.214;2022-11-21T04:00:13;12.15;;;6.18;;
34902;SDS011;21114;44.840;0.214;2022-11-21T04:03:28;13.30;;;5.45;;
34902;SDS011;21114;44.840;0.214;2022-11-21T04:05:54;13.20;;;4.85;;
34902;SDS011;21114;44.840;0.214;2022-11-21T04:08:20;8.00;;;3.50;;
34902;SDS011;21114;44.840;0.214;2022-11-21T04:10:47;11.35;;;5.25;;
34902;SDS011;21114;44.840;0.214;2022-11-21T04:13:50;14.32;;;5.80;;
34902;SDS011;21114;44.840;0.214;2022-11-21T04:17:04;10.95;;;5.82;;
34902;SDS011;21114;44.840;0.214;2022-11-21T04:19:31;11.43;;;5.65;;
34902;SDS011;21114;44.840;0.214;2022-11-21T04:21:57;10.60;;;7.35;;
34902;SDS011;21114;44.840;0.214;2022-11-21T04:24:23;12.75;;;5.60;;
34902;SDS011;21114;44.840;0.214;2022-11-21T04:26:49;16.48;;;7.65;;
34902;SDS011;21114;44.840;0.214;2022-11-21T04:29:15;9.07;;;4.47;;
34902;SDS011;21114;44.840;0.214;2022-11-21T04:31:41;13.38;;;6.82;;
34902;SDS011;21114;44.840;0.214;2022-11-21T04:34:07;10.43;;;5.53;;
34902;SDS011;21114;44.840;0.214;2022-11-21T04:36:33;15.68;;;6.68;;
34902;SDS011;21114;44.840;0.214;2022-11-21T04:38:59;11.68;;;4.90;;
34902;SDS011;21114;44.840;0.214;2022-11-21T04:41:25;10.55;;;5.07;;
34902;SDS011;21114;44.840;0.214;2022-11-21T04:43:51;13.85;;;5.75;;
34902;SDS011;21114;44.840;0.214;2022-11-21T04:46:17;9.90;;;4.35;;
34902;SDS011;21114;44.840;0.214;2022-11-21T04:48:43;12.43;;;5.32;;
34902;SDS011;21114;44.840;0.214;2022-11-21T04:51:10;10.63;;;6.20;;
34902;SDS011;21114;44.840;0.214;2022-11-21T04:53:36;14.25;;;5.80;;
34902;SDS011;21114;44.840;0.214;2022-11-21T04:56:03;15.10;;;6.18;;
34902;SDS011;21114;44.840;0.214;2022-11-21T04:59:17;11.80;;;6.32;;
34902;SDS011;21114;44.840;0.214;2022-11-21T05:01:43;14.73;;;5.32;;
34902;SDS011;21114;44.840;0.214;2022-11-21T05:04:09;12.27;;;5.22;;
34902;SDS011;21114;44.840;0.214;2022-11-21T05:06:35;9.85;;;6.28;;
34902;SDS011;21114;44.840;0.214;2022-11-21T05:09:01;13.45;;;7.28;;
34902;SDS011;21114;44.840;0.214;2022-11-21T05:11:27;13.55;;;7.50;;
34902;SDS011;21114;44.840;0.214;2022-11-21T05:14:22;10.40;;;5.22;;
34902;SDS011;21114;44.840;0.214;2022-11-21T05:16:50;15.00;;;6.13;;
34902;SDS011;21114;44.840;0.214;2022-11-21T05:20:05;18.42;;;8.27;;
34902;SDS011;21114;44.840;0.214;2022-11-21T05:22:31;21.52;;;8.30;;
34902;SDS011;21114;44.840;0.214;2022-11-21T05:24:58;20.13;;;10.52;;
34902;SDS011;21114;44.840;0.214;2022-11-21T05:27:24;16.77;;;6.65;;
34902;SDS011;21114;44.840;0.214;2022-11-21T05:29:50;21.27;;;8.13;;
34902;SDS011;21114;44.840;0.214;2022-11-21T05:32:17;19.95;;;8.95;;
34902;SDS011;21114;44.840;0.214;2022-11-21T05:34:43;18.00;;;9.93;;
34902;SDS011;21114;44.840;0.214;2022-11-21T05:37:09;9.18;;;5.25;;
34902;SDS011;21114;44.840;0.214;2022-11-21T05:39:35;12.90;;;7.15;;
34902;SDS011;21114;44.840;0.214;2022-11-21T05:42:01;13.30;;;5.30;;
34902;SDS011;21114;44.840;0.214;2022-11-21T05:44:27;13.77;;;5.20;;
34902;SDS011;21114;44.840;0.214;2022-11-21T05:46:53;13.77;;;6.25;;
34902;SDS011;21114;44.840;0.214;2022-11-21T05:49:19;10.18;;;7.03;;
34902;SDS011;21114;44.840;0.214;2022-11-21T05:51:46;17.83;;;6.05;;
34902;SDS011;21114;44.840;0.214;2022-11-21T05:54:12;15.80;;;6.47;;
34902;SDS011;21114;44.840;0.214;2022-11-21T05:57:27;7.25;;;3.45;;
34902;SDS011;21114;44.840;0.214;2022-11-21T05:59:53;6.30;;;2.95;;
34902;SDS011;21114;44.840;0.214;2022-11-21T06:02:19;12.27;;;3.50;;
34902;SDS011;21114;44.840;0.214;2022-11-21T06:05:13;5.43;;;3.10;;
34902;SDS011;21114;44.840;0.214;2022-11-21T06:07:39;8.98;;;3.20;;
34902;SDS011;21114;44.840;0.214;2022-11-21T06:10:05;6.82;;;2.25;;
34902;SDS011;21114;44.840;0.214;2022-11-21T06:12:32;5.43;;;1.73;;
34902;SDS011;21114;44.840;0.214;2022-11-21T06:14:58;9.77;;;2.90;;
34902;SDS011;21114;44.840;0.214;2022-11-21T06:17:24;7.03;;;2.17;;
34902;SDS011;21114;44.840;0.214;2022-11-21T06:19:50;3.72;;;2.28;;
34902;SDS011;21114;44.840;0.214;2022-11-21T06:22:16;8.43;;;2.70;;
34902;SDS011;21114;44.840;0.214;2022-11-21T06:24:42;6.97;;;2.13;;
34902;SDS011;21114;44.840;0.214;2022-11-21T06:27:09;4.38;;;1.65;;
34902;SDS011;21114;44.840;0.214;2022-11-21T06:29:35;4.40;;;2.38;;
34902;SDS011;21114;44.840;0.214;2022-11-21T06:32:01;4.53;;;1.83;;
34902;SDS011;21114;44.840;0.214;2022-11-21T06:34:27;6.35;;;2.55;;
34902;SDS011;21114;44.840;0.214;2022-11-21T06:36:53;8.13;;;3.53;;
34902;SDS011;21114;44.840;0.214;2022-11-21T06:39:19;6.68;;;2.70;;
34902;SDS011;21114;44.840;0.214;2022-11-21T06:41:46;7.30;;;2.55;;
34902;SDS011;21114;44.840;0.214;2022-11-21T06:45:00;4.95;;;2.10;;
34902;SDS011;21114;44.840;0.214;2022-11-21T06:47:26;4.25;;;2.10;;
34902;SDS011;21114;44.840;0.214;2022-11-21T06:49:52;9.07;;;2.13;;
34902;SDS011;21114;44.840;0.214;2022-11-21T06:52:18;2.72;;;1.13;;
34902;SDS011;21114;44.840;0.214;2022-11-21T06:54:44;9.50;;;3.15;;
34902;SDS011;21114;44.840;0.214;2022-11-21T06:57:10;9.25;;;2.65;;
34902;SDS011;21114;44.840;0.214;2022-11-21T06:59:37;5.00;;;2.97;;
34902;SDS011;21114;44.840;0.214;2022-11-21T07:02:03;8.05;;;2.35;;
34902;SDS011;21114;44.840;0.214;2022-11-21T07:04:29;8.93;;;3.75;;
34902;SDS011;21114;44.840;0.214;2022-11-21T07:06:55;2.65;;;1.33;;
34902;SDS011;21114;44.840;0.214;2022-11-21T07:09:21;3.35;;;1.98;;
34902;SDS011;21114;44.840;0.214;2022-11-21T07:11:47;5.03;;;1.80;;
34902;SDS011;21114;44.840;0.214;2022-11-21T07:14:13;4.85;;;1.65;;
34902;SDS011;21114;44.840;0.214;2022-11-21T07:16:39;1.85;;;1.23;;
34902;SDS011;21114;44.840;0.214;2022-11-21T07:19:05;1.85;;;1.00;;
34902;SDS011;21114;44.840;0.214;2022-11-21T07:21:31;5.75;;;1.75;;
34902;SDS011;21114;44.840;0.214;2022-11-21T07:23:58;3.50;;;1.33;;
34902;SDS011;21114;44.840;0.214;2022-11-21T07:27:12;3.60;;;1.90;;
34902;SDS011;21114;44.840;0.214;2022-11-21T07:29:38;24.70;;;16.27;;
34902;SDS011;21114;44.840;0.214;2022-11-21T07:32:04;1.50;;;1.23;;
34902;SDS011;21114;44.840;0.214;2022-11-21T07:34:31;1.50;;;1.20;;
34902;SDS011;21114;44.840;0.214;2022-11-21T07:36:57;3.08;;;1.70;;
34902;SDS011;21114;44.840;0.214;2022-11-21T07:39:23;3.50;;;2.47;;
34902;SDS011;21114;44.840;0.214;2022-11-21T07:41:49;3.53;;;1.65;;
34902;SDS011;21114;44.840;0.214;2022-11-21T07:44:15;2.80;;;1.10;;
34902;SDS011;21114;44.840;0.214;2022-11-21T07:46:41;3.63;;;1.90;;
34902;SDS011;21114;44.840;0.214;2022-11-21T07:49:07;3.15;;;1.17;;
34902;SDS011;21114;44.840;0.214;2022-11-21T07:51:33;4.20;;;2.15;;
34902;SDS011;21114;44.840;0.214;2022-11-21T07:54:49;5.03;;;1.20;;
34902;SDS011;21114;44.840;0.214;2022-11-21T07:57:15;2.22;;;0.93;;
34902;SDS011;21114;44.840;0.214;2022-11-21T07:59:41;2.85;;;1.20;;
34902;SDS011;21114;44.840;0.214;2022-11-21T08:02:15;3.42;;;2.03;;
34902;SDS011;21114;44.840;0.214;2022-11-21T08:04:42;1.90;;;1.20;;
34902;SDS011;21114;44.840;0.214;2022-11-21T08:07:09;1.85;;;1.00;;
34902;SDS011;21114;44.840;0.214;2022-11-21T08:10:23;2.88;;;1.30;;
34902;SDS011;21114;44.840;0.214;2022-11-21T08:12:49;2.38;;;1.27;;
34902;SDS011;21114;44.840;0.214;2022-11-21T08:15:16;2.08;;;1.48;;
34902;SDS011;21114;44.840;0.214;2022-11-21T08:17:42;3.72;;;1.60;;
34902;SDS011;21114;44.840;0.214;2022-11-21T08:20:08;11.90;;;3.58;;
34902;SDS011;21114;44.840;0.214;2022-11-21T08:22:36;3.42;;;1.52;;
34902;SDS011;21114;44.840;0.214;2022-11-21T08:25:50;4.65;;;0.90;;
34902;SDS011;21114;44.840;0.214;2022-11-21T08:28:16;2.28;;;1.10;;
34902;SDS011;21114;44.840;0.214;2022-11-21T08:30:42;3.95;;;2.25;;
34902;SDS011;21114;44.840;0.214;2022-11-21T08:33:08;3.05;;;1.23;;
34902;SDS011;21114;44.840;0.214;2022-11-21T08:35:35;5.30;;;2.25;;
34902;SDS011;21114;44.840;0.214;2022-11-21T08:38:49;2.90;;;1.92;;
34902;SDS011;21114;44.840;0.214;2022-11-21T08:41:15;1.33;;;0.90;;
34902;SDS011;21114;44.840;0.214;2022-11-21T08:44:09;3.17;;;1.10;;
34902;SDS011;21114;44.840;0.214;2022-11-21T08:46:35;1.48;;;0.73;;
34902;SDS011;21114;44.840;0.214;2022-11-21T08:49:02;1.98;;;0.57;;
34902;SDS011;21114;44.840;0.214;2022-11-21T08:52:16;4.15;;;1.10;;
34902;SDS011;21114;44.840;0.214;2022-11-21T08:54:43;1.83;;;0.70;;
34902;SDS011;21114;44.840;0.214;2022-11-21T08:57:58;2.58;;;1.30;;
34902;SDS011;21114;44.840;0.214;2022-11-21T09:00:24;4.07;;;2.08;;
34902;SDS011;21114;44.840;0.214;2022-11-21T09:02:50;3.92;;;1.38;;
34902;SDS011;21114;44.840;0.214;2022-11-21T09:05:16;8.60;;;2.05;;
34902;SDS011;21114;44.840;0.214;2022-11-21T09:07:42;2.53;;;1.17;;
34902;SDS011;21114;44.840;0.214;2022-11-21T09:10:08;1.95;;;1.20;;
34902;SDS011;21114;44.840;0.214;2022-11-21T09:12:34;3.85;;;2.03;;
34902;SDS011;21114;44.840;0.214;2022-11-21T09:15:01;6.97;;;1.30;;
34902;SDS011;21114;44.840;0.214;2022-11-21T09:17:59;1.58;;;0.98;;
34902;SDS011;21114;44.840;0.214;2022-11-21T09:21:14;3.47;;;2.28;;
34902;SDS011;21114;44.840;0.214;2022-11-21T09:24:28;3.45;;;1.98;;
34902;SDS011;21114;44.840;0.214;2022-11-21T09:26:54;3.70;;;2.15;;
34902;SDS011;21114;44.840;0.214;2022-11-21T09:29:20;1.95;;;1.05;;
34902;SDS011;21114;44.840;0.214;2022-11-21T09:31:46;0.90;;;0.50;;
34902;SDS011;21114;44.840;0.214;2022-11-21T09:34:12;1.70;;;0.85;;
34902;SDS011;21114;44.840;0.214;2022-11-21T09:36:39;1.70;;;1.15;;
34902;SDS011;21114;44.840;0.214;2022-11-21T09:39:05;3.90;;;2.03;;
34902;SDS011;21114;44.840;0.214;2022-11-21T09:41:34;3.03;;;1.40;;
34902;SDS011;21114;44.840;0.214;2022-11-21T09:47:46;8.45;;;5.13;;
34902;SDS011;21114;44.840;0.214;2022-11-21T09:51:03;2.15;;;1.60;;
34902;SDS011;21114;44.840;0.214;2022-11-21T09:54:21;0.45;;;0.45;;
34902;SDS011;21114;44.840;0.214;2022-11-21T09:57:20;3.17;;;1.63;;
34902;SDS011;21114;44.840;0.214;2022-11-21T10:00:35;2.83;;;2.05;;
34902;SDS011;21114;44.840;0.214;2022-11-21T10:03:01;2.85;;;2.20;;
34902;SDS011;21114;44.840;0.214;2022-11-21T10:05:32;4.82;;;3.38;;
34902;SDS011;21114;44.840;0.214;2022-11-21T10:14:27;1.23;;;0.45;;
34902;SDS011;21114;44.840;0.214;2022-11-21T10:26:05;1.42;;;0.93;;
34902;SDS011;21114;44.840;0.214;2022-11-21T10:28:37;2.78;;;0.73;;
34902;SDS011;21114;44.840;0.214;2022-11-21T10:31:07;2.78;;;1.27;;
34902;SDS011;21114;44.840;0.214;2022-11-21T10:33:34;2.05;;;1.30;;
34902;SDS011;21114;44.840;0.214;2022-11-21T10:36:22;1.92;;;0.80;;
34902;SDS011;21114;44.840;0.214;2022-11-21T10:38:50;4.00;;;3.13;;
34902;SDS011;21114;44.840;0.214;2022-11-21T10:41:19;1.88;;;1.45;;
34902;SDS011;21114;44.840;0.214;2022-11-21T10:46:22;3.42;;;1.42;;
34902;SDS011;21114;44.840;0.214;2022-11-21T10:48:53;2.40;;;0.80;;
34902;SDS011;21114;44.840;0.214;2022-11-21T10:52:10;5.50;;;1.05;;
34902;SDS011;21114;44.840;0.214;2022-11-21T10:57:44;5.05;;;1.98;;
34902;SDS011;21114;44.840;0.214;2022-11-21T11:00:57;1.58;;;1.13;;
34902;SDS011;21114;44.840;0.214;2022-11-21T11:06:52;2.17;;;1.00;;
34902;SDS011;21114;44.840;0.214;2022-11-21T11:09:21;5.05;;;1.67;;
34902;SDS011;21114;44.840;0.214;2022-11-21T11:12:36;10.85;;;9.27;;
34902;SDS011;21114;44.840;0.214;2022-11-21T11:16:14;5.10;;;1.48;;
34902;SDS011;21114;44.840;0.214;2022-11-21T11:19:28;4.53;;;1.55;;
34902;SDS011;21114;44.840;0.214;2022-11-21T11:21:54;6.57;;;2.75;;
34902;SDS011;21114;44.840;0.214;2022-11-21T11:27:00;4.00;;;1.98;;
34902;SDS011;21114;44.840;0.214;2022-11-21T11:29:29;11.70;;;2.75;;
34902;SDS011;21114;44.840;0.214;2022-11-21T11:45:46;12.45;;;3.17;;
34902;SDS011;21114;44.840;0.214;2022-11-21T11:48:42;7.28;;;3.13;;
34902;SDS011;21114;44.840;0.214;2022-11-21T11:54:06;13.70;;;5.72;;
34902;SDS011;21114;44.840;0.214;2022-11-21T11:57:21;12.75;;;4.22;;
34902;SDS011;21114;44.840;0.214;2022-11-21T11:59:49;9.93;;;3.38;;
34902;SDS011;21114;44.840;0.214;2022-11-21T12:05:49;7.95;;;2.92;;
34902;SDS011;21114;44.840;0.214;2022-11-21T12:08:52;14.05;;;6.68;;
34902;SDS011;21114;44.840;0.214;2022-11-21T12:17:56;11.73;;;3.10;;
34902;SDS011;21114;44.840;0.214;2022-11-21T12:23:08;13.02;;;6.78;;
34902;SDS011;21114;44.840;0.214;2022-11-21T12:46:01;11.30;;;3.53;;
34902;SDS011;21114;44.840;0.214;2022-11-21T13:05:36;15.35;;;4.53;;
34902;SDS011;21114;44.840;0.214;2022-11-21T13:08:52;16.23;;;6.20;;
34902;SDS011;21114;44.840;0.214;2022-11-21T13:12:10;15.30;;;4.80;;
34902;SDS011;21114;44.840;0.214;2022-11-21T13:15:28;18.83;;;4.85;;
34902;SDS011;21114;44.840;0.214;2022-11-21T13:19:00;16.60;;;4.80;;
34902;SDS011;21114;44.840;0.214;2022-11-21T13:25:11;18.98;;;5.68;;
34902;SDS011;21114;44.840;0.214;2022-11-21T13:28:30;21.80;;;9.57;;
34902;SDS011;21114;44.840;0.214;2022-11-21T13:31:44;19.58;;;6.43;;
34902;SDS011;21114;44.840;0.214;2022-11-21T13:37:04;31.83;;;8.90;;
34902;SDS011;21114;44.840;0.214;2022-11-21T13:39:31;34.53;;;7.35;;
34902;SDS011;21114;44.840;0.214;2022-11-21T13:45:40;27.13;;;8.38;;
34902;SDS011;21114;44.840;0.214;2022-11-21T13:49:00;37.28;;;11.60;;
34902;SDS011;21114;44.840;0.214;2022-11-21T13:52:29;27.55;;;9.38;;
34902;SDS011;21114;44.840;0.214;2022-11-21T13:58:30;26.95;;;9.10;;
34902;SDS011;21114;44.840;0.214;2022-11-21T14:01:54;36.75;;;9.32;;
34902;SDS011;21114;44.840;0.214;2022-11-21T14:07:48;27.38;;;8.65;;
34902;SDS011;21114;44.840;0.214;2022-11-21T14:13:57;35.35;;;9.40;;
34902;SDS011;21114;44.840;0.214;2022-11-21T14:16:29;27.17;;;7.10;;
34902;SDS011;21114;44.840;0.214;2022-11-21T14:19:44;20.55;;;6.88;;
34902;SDS011;21114;44.840;0.214;2022-11-21T14:28:25;26.65;;;9.82;;
34902;SDS011;21114;44.840;0.214;2022-11-21T14:31:44;23.17;;;7.07;;
34902;SDS011;21114;44.840;0.214;2022-11-21T14:37:47;32.53;;;6.25;;
34902;SDS011;21114;44.840;0.214;2022-11-21T14:46:36;26.50;;;7.70;;
34902;SDS011;21114;44.840;0.214;2022-11-21T14:51:57;19.67;;;6.15;;
34902;SDS011;21114;44.840;0.214;2022-11-21T14:55:19;21.25;;;6.43;;
34902;SDS011;21114;44.840;0.214;2022-11-21T14:58:35;16.60;;;5.38;;
34902;SDS011;21114;44.840;0.214;2022-11-21T15:01:04;18.52;;;6.15;;
34902;SDS011;21114;44.840;0.214;2022-11-21T15:04:19;27.05;;;7.53;;
34902;SDS011;21114;44.840;0.214;2022-11-21T15:07:43;40.83;;;9.48;;
34902;SDS011;21114;44.840;0.214;2022-11-21T15:10:57;22.90;;;7.13;;
34902;SDS011;21114;44.840;0.214;2022-11-21T15:16:53;20.55;;;5.97;;
34902;SDS011;21114;44.840;0.214;2022-11-21T15:22:52;20.60;;;8.20;;
34902;SDS011;21114;44.840;0.214;2022-11-21T15:25:54;19.80;;;6.47;;
34902;SDS011;21114;44.840;0.214;2022-11-21T15:28:20;22.10;;;7.78;;
34902;SDS011;21114;44.840;0.214;2022-11-21T15:30:46;23.23;;;7.43;;
34902;SDS011;21114;44.840;0.214;2022-11-21T15:43:47;18.42;;;9.02;;
34902;SDS011;21114;44.840;0.214;2022-11-21T15:46:50;13.37;;;4.57;;
34902;SDS011;21114;44.840;0.214;2022-11-21T15:50:04;14.43;;;5.45;;
34902;SDS011;21114;44.840;0.214;2022-11-21T15:52:31;16.13;;;6.28;;
34902;SDS011;21114;44.840;0.214;2022-11-21T15:54:57;12.85;;;5.20;;
34902;SDS011;21114;44.840;0.214;2022-11-21T15:57:23;16.70;;;5.85;;
34902;SDS011;21114;44.840;0.214;2022-11-21T15:59:49;19.25;;;6.38;;
34902;SDS011;21114;44.840;0.214;2022-11-21T16:02:17;25.15;;;8.30;;
34902;SDS011;21114;44.840;0.214;2022-11-21T16:04:43;17.35;;;5.00;;
34902;SDS011;21114;44.840;0.214;2022-11-21T16:07:10;14.40;;;5.53;;
34902;SDS011;21114;44.840;0.214;2022-11-21T16:09:36;14.45;;;5.18;;
34902;SDS011;21114;44.840;0.214;2022-11-21T16:12:02;14.98;;;4.22;;
34902;SDS011;21114;44.840;0.214;2022-11-21T16:14:28;14.80;;;4.68;;
34902;SDS011;21114;44.840;0.214;2022-11-21T16:19:58;12.23;;;4.90;;
34902;SDS011;21114;44.840;0.214;2022-11-21T16:22:24;14.35;;;5.50;;
34902;SDS011;21114;44.840;0.214;2022-11-21T16:24:50;10.85;;;3.75;;
34902;SDS011;21114;44.840;0.214;2022-11-21T16:27:16;15.68;;;4.13;;
34902;SDS011;21114;44.840;0.214;2022-11-21T16:29:43;8.93;;;4.65;;
34902;SDS011;21114;44.840;0.214;2022-11-21T16:32:09;13.95;;;4.10;;
34902;SDS011;21114;44.840;0.214;2022-11-21T16:34:35;16.60;;;6.40;;
34902;SDS011;21114;44.840;0.214;2022-11-21T16:37:01;13.82;;;4.10;;
34902;SDS011;21114;44.840;0.214;2022-11-21T16:39:27;8.23;;;4.32;;
34902;SDS011;21114;44.840;0.214;2022-11-21T16:41:53;10.25;;;4.93;;
34902;SDS011;21114;44.840;0.214;2022-11-21T16:44:19;16.65;;;5.07;;
34902;SDS011;21114;44.840;0.214;2022-11-21T16:46:45;11.07;;;4.72;;
34902;SDS011;21114;44.840;0.214;2022-11-21T16:49:13;12.00;;;3.33;;
34902;SDS011;21114;44.840;0.214;2022-11-21T16:51:39;12.55;;;4.88;;
34902;SDS011;21114;44.840;0.214;2022-11-21T16:54:05;16.20;;;5.30;;
34902;SDS011;21114;44.840;0.214;2022-11-21T16:56:31;13.43;;;5.85;;
34902;SDS011;21114;44.840;0.214;2022-11-21T16:58:57;12.68;;;4.95;;
34902;SDS011;21114;44.840;0.214;2022-11-21T17:01:24;10.85;;;6.50;;
34902;SDS011;21114;44.840;0.214;2022-11-21T17:04:38;12.27;;;4.35;;
34902;SDS011;21114;44.840;0.214;2022-11-21T17:07:05;16.80;;;7.53;;
34902;SDS011;21114;44.840;0.214;2022-11-21T17:09:31;10.52;;;4.68;;
34902;SDS011;21114;44.840;0.214;2022-11-21T17:11:57;19.02;;;7.05;;
34902;SDS011;21114;44.840;0.214;2022-11-21T17:15:12;17.35;;;7.05;;
34902;SDS011;21114;44.840;0.214;2022-11-21T17:18:27;11.45;;;4.32;;
34902;SDS011;21114;44.840;0.214;2022-11-21T17:20:53;15.43;;;4.25;;
34902;SDS011;21114;44.840;0.214;2022-11-21T17:23:19;9.45;;;4.65;;
34902;SDS011;21114;44.840;0.214;2022-11-21T17:25:45;18.58;;;6.10;;
34902;SDS011;21114;44.840;0.214;2022-11-21T17:28:12;21.23;;;5.75;;
34902;SDS011;21114;44.840;0.214;2022-11-21T17:30:38;11.27;;;4.55;;
34902;SDS011;21114;44.840;0.214;2022-11-21T17:33:08;15.10;;;5.45;;
34902;SDS011;21114;44.840;0.214;2022-11-21T17:36:11;14.07;;;5.40;;
34902;SDS011;21114;44.840;0.214;2022-11-21T17:39:26;11.52;;;5.93;;
34902;SDS011;21114;44.840;0.214;2022-11-21T17:41:52;11.45;;;5.68;;
34902;SDS011;21114;44.840;0.214;2022-11-21T17:44:18;15.85;;;5.15;;
34902;SDS011;21114;44.840;0.214;2022-11-21T17:46:44;13.65;;;3.92;;
34902;SDS011;21114;44.840;0.214;2022-11-21T17:49:11;15.30;;;5.45;;
34902;SDS011;21114;44.840;0.214;2022-11-21T17:51:38;9.48;;;5.43;;
34902;SDS011;21114;44.840;0.214;2022-11-21T17:54:52;17.58;;;5.90;;
34902;SDS011;21114;44.840;0.214;2022-11-21T17:57:18;7.32;;;3.20;;
34902;SDS011;21114;44.840;0.214;2022-11-21T17:59:44;21.63;;;5.72;;
34902;SDS011;21114;44.840;0.214;2022-11-21T18:02:10;11.27;;;4.68;;
34902;SDS011;21114;44.840;0.214;2022-11-21T18:04:36;14.88;;;4.40;;
34902;SDS011;21114;44.840;0.214;2022-11-21T18:07:03;11.77;;;5.50;;
34902;SDS011;21114;44.840;0.214;2022-11-21T18:10:18;14.65;;;6.68;;
34902;SDS011;21114;44.840;0.214;2022-11-21T18:12:44;12.57;;;5.45;;
34902;SDS011;21114;44.840;0.214;2022-11-21T18:15:10;16.85;;;8.38;;